HST,Max TemperatureF,Mean TemperatureF,Min TemperatureF,Max Dew PointF,MeanDew PointF,Min DewpointF,Max Humidity, Mean Humidity, Min Humidity, Max Sea Level PressureIn, Mean Sea Level PressureIn, Min Sea Level PressureIn, Max VisibilityMiles, Mean VisibilityMiles, Min VisibilityMiles, Max Wind SpeedMPH, Mean Wind SpeedMPH, Max Gust SpeedMPH,PrecipitationIn, CloudCover, Events, WindDirDegrees
2012-2-1,75,67,59,61,59,56,93,76,52,30.06,30.00,29.92,10,10,9,12,3,,0.00,2,Rain,4
2012-2-2,78,68,59,60,58,56,90,64,47,30.05,30.01,29.97,10,7,0,72,6,16,0.06,2,Rain,56
2012-2-3,77,66,56,60,57,55,94,75,48,30.02,29.95,29.88,10,10,10,12,4,,0.00,1,,316
2012-2-4,78,67,56,66,63,55,94,82,62,29.91,29.84,29.79,10,10,10,15,3,18,0.00,3,,311
2012-2-5,77,69,61,67,64,60,95,85,57,29.91,29.84,29.78,10,9,2,17,6,24,0.17,5,Rain,325
2012-2-6,74,68,62,66,64,61,100,87,68,29.93,29.89,29.84,10,9,2,8,2,,0.28,7,Rain,173
2012-2-7,74,69,64,66,64,55,100,87,68,29.94,29.85,29.80,10,8,1,25,6,38,0.75,7,Rain,289
2012-2-8,68,63,58,57,54,47,93,70,51,30.13,30.02,29.94,10,10,9,18,13,29,0.01,6,Rain,325
2012-2-9,73,65,57,55,54,52,86,69,47,30.27,30.17,30.10,10,9,0,33,9,21,0.00,3,Rain,12
2012-2-10,74,66,57,59,57,54,89,74,53,30.26,30.21,30.12,10,10,10,20,6,21,0.00,1,,104
2012-2-11,75,68,62,63,60,59,89,77,59,30.26,30.22,30.15,10,10,10,15,5,,0.00,5,,25
2012-2-12,75,68,60,66,63,58,92,81,63,30.24,30.18,30.14,10,10,5,14,4,17,0.00,7,Rain,78
2012-2-13,76,69,62,64,62,60,93,80,60,30.20,30.14,30.08,10,10,10,15,4,,0.00,4,,61
2012-2-14,76,68,61,65,63,59,94,81,60,30.14,30.06,29.87,10,9,2,10,3,,0.15,5,Rain,41
2012-2-15,77,68,60,65,62,59,95,79,55,30.19,30.12,30.08,10,10,10,13,3,18,0.00,4,,12
2012-2-16,75,68,61,66,63,59,95,80,61,30.21,30.16,30.12,10,10,7,15,6,21,0.01,6,,70
2012-2-17,75,70,66,64,62,57,88,79,53,30.24,30.18,30.12,10,10,2,16,4,25,0.05,5,Rain,72
2012-2-18,73,70,66,63,62,59,89,77,60,30.15,30.12,30.08,10,10,5,16,10,26,0.04,6,Rain,110
2012-2-19,74,70,66,63,62,59,88,81,63,30.14,30.11,30.02,10,10,4,23,7,31,0.09,5,Rain,95
2012-2-20,75,70,66,63,61,59,83,72,56,30.12,30.09,30.01,10,10,9,17,9,26,0.00,3,Rain,91
2012-2-21,75,68,61,64,62,58,90,75,63,30.14,30.09,30.04,10,10,8,24,8,30,0.00,4,Rain,88
2012-2-22,77,72,66,64,63,59,88,79,58,30.11,30.06,30.01,10,10,10,18,5,24,0.00,6,Rain,102
2012-2-23,77,70,63,64,62,60,89,78,57,30.06,30.00,29.91,10,10,7,15,6,21,0.01,5,Rain,94
2012-2-24,77,70,62,65,63,60,93,79,57,30.00,29.95,29.90,10,10,10,9,3,,0.00,4,,174
2012-2-25,77,69,61,68,65,59,94,79,61,30.02,29.98,29.93,10,10,4,15,4,17,0.02,6,Rain,123
2012-2-26,73,68,62,65,63,59,94,84,68,30.09,30.01,29.95,10,10,2,15,4,20,0.30,6,Rain,359
2012-2-27,74,69,64,64,62,60,85,78,65,30.08,30.04,29.98,10,10,9,17,5,18,0.00,3,Rain,112
2012-2-28,76,68,61,64,62,59,94,82,58,30.08,30.05,30.00,10,10,7,15,3,,0.01,4,,102
2012-2-29,73,70,66,66,63,60,88,80,66,30.08,30.04,30.01,10,9,3,16,4,,0.07,5,Rain,135